createdAt,value
2018-02-20T00:02:36.902Z,3.10
2018-02-20T00:17:38.647Z,4.10
2018-02-20T00:32:37.561Z,5.77
2018-02-20T00:47:35.247Z,6.17
2018-02-20T01:02:37.153Z,5.10
2018-02-20T01:17:37.004Z,5.10
2018-02-20T01:32:34.941Z,4.20
2018-02-20T01:47:34.952Z,6.40
2018-02-20T02:02:34.353Z,6.20
2018-02-20T02:17:35.245Z,8.10
2018-02-20T02:32:36.228Z,9.60
2018-02-20T02:47:35.161Z,7.33
2018-02-20T03:02:34.582Z,6.93
2018-02-20T03:17:34.463Z,6.10
2018-02-20T03:32:34.468Z,7.77
2018-02-20T03:47:34.365Z,6.90
2018-02-20T04:02:40.891Z,8.60
2018-02-20T04:17:34.722Z,6.83
2018-02-20T04:32:34.738Z,9.13
2018-02-20T04:47:34.660Z,6.60
2018-02-20T05:02:35.073Z,5.50
2018-02-20T05:17:34.954Z,5.63
2018-02-20T05:32:35.390Z,8.07
2018-02-20T05:47:34.823Z,8.40
2018-02-20T06:02:34.235Z,7.63
2018-02-20T06:17:35.261Z,9.20
2018-02-20T06:32:35.802Z,12.67
2018-02-20T06:47:35.073Z,12.13
2018-02-20T07:02:34.551Z,13.10
2018-02-20T07:17:36.548Z,14.83
2018-02-20T07:32:35.412Z,15.83
2018-02-20T07:47:34.300Z,14.93
2018-02-20T08:02:34.926Z,12.50
2018-02-20T08:17:34.681Z,15.53
2018-02-20T08:32:34.555Z,13.10
2018-02-20T08:47:37.420Z,10.53
2018-02-20T09:02:40.324Z,13.03
2018-02-20T09:17:35.918Z,16.00
2018-02-20T09:32:36.864Z,11.50
2018-02-20T09:47:37.736Z,15.43
2018-02-20T10:02:35.203Z,14.47
2018-02-20T10:17:37.192Z,14.00
2018-02-20T10:32:36.092Z,13.50
2018-02-20T10:47:38.005Z,14.90
2018-02-20T11:02:34.442Z,13.13
2018-02-20T11:17:34.328Z,11.90
2018-02-20T11:32:34.227Z,15.80
2018-02-20T11:47:35.303Z,15.57
2018-02-20T12:02:36.578Z,11.10
2018-02-20T12:17:34.883Z,13.63
2018-02-20T12:32:34.522Z,16.87
2018-02-20T12:47:34.443Z,12.87
2018-02-20T13:02:34.798Z,17.50
2018-02-20T13:17:34.329Z,15.87
2018-02-20T13:32:36.968Z,13.57
2018-02-20T13:47:36.651Z,15.83
2018-02-20T14:02:37.310Z,12.13
2018-02-20T14:17:35.042Z,14.23
2018-02-20T14:32:41.669Z,17.07
2018-02-20T14:47:34.519Z,14.93
2018-02-20T15:02:34.236Z,15.27
2018-02-20T15:17:34.434Z,16.40
2018-02-20T15:32:35.102Z,16.70
2018-02-20T15:47:35.107Z,19.90
2018-02-20T16:02:34.530Z,15.40
2018-02-20T16:17:37.504Z,23.80
2018-02-20T16:32:37.385Z,16.10
2018-02-20T16:47:36.292Z,15.10
2018-02-20T17:02:39.380Z,14.40
2018-02-20T17:17:34.712Z,12.80
2018-02-20T17:32:34.857Z,15.90
2018-02-20T17:47:35.526Z,16.83
2018-02-20T18:02:36.960Z,14.00
2018-02-20T18:17:34.891Z,13.03
2018-02-20T18:32:34.804Z,14.93
2018-02-20T18:47:36.781Z,17.00
2018-02-20T19:02:38.658Z,10.47
2018-02-20T19:17:35.144Z,13.70
2018-02-20T19:32:35.055Z,10.80
2018-02-20T19:47:36.976Z,8.33
2018-02-20T20:02:34.367Z,8.50
2018-02-20T20:17:34.275Z,9.70
2018-02-20T20:32:34.338Z,8.00
2018-02-20T20:47:57.507Z,10.80
2018-02-20T21:02:35.094Z,5.97
2018-02-20T21:17:38.014Z,6.83
2018-02-20T21:32:35.099Z,5.93
2018-02-20T21:47:34.952Z,12.30
2018-02-20T22:02:36.635Z,17.90
2018-02-20T22:17:34.318Z,22.50
2018-02-20T22:32:34.619Z,18.67
2018-02-20T22:47:34.598Z,13.57
2018-02-20T23:02:36.439Z,11.53
2018-02-20T23:17:37.362Z,11.37
2018-02-20T23:32:34.306Z,11.53
2018-02-20T23:47:36.245Z,13.83
